Time;durP1;ratioP1;P1;durP2;ratioP2;P2;SDS_P1;SDS_P2;PMS_P1;PMS_P2;Temp;Humidity;BMP_temperature;BMP_pressure;BME280_temperature;BME280_humidity;BME280_pressure;Samples;Min_cycle;Max_cycle;Signal;HPM_P1;HPM_P2
2023/09/25 00:00:52;;;;;;;9.05;6.10;;;;;;;17.93;100.00;100207.66;5076120;28;20040;-37
2023/09/25 00:03:18;;;;;;;8.50;6.30;;;;;;;18.14;100.00;100238.03;5074783;28;20047;-36
2023/09/25 00:05:46;;;;;;;8.40;5.93;;;;;;;18.18;100.00;100250.06;5073225;28;20040;-37
2023/09/25 00:08:12;;;;;;;6.25;5.32;;;;;;;18.07;100.00;100225.28;5076941;28;20144;-37
2023/09/25 00:10:38;;;;;;;7.72;4.85;;;;;;;17.97;99.78;100192.53;5076055;28;20037;-37
2023/09/25 00:13:04;;;;;;;7.20;4.45;;;;;;;18.11;99.38;100217.13;5077617;28;20032;-37
2023/09/25 00:15:30;;;;;;;6.15;4.15;;;;;;;18.30;99.21;100247.69;5078257;28;20538;-37
2023/09/25 00:17:57;;;;;;;4.85;3.30;;;;;;;18.29;98.98;100245.97;5059216;28;20047;-37
2023/09/25 00:20:24;;;;;;;4.18;2.95;;;;;;;18.14;98.65;100219.59;5066587;28;20035;-36
2023/09/25 00:22:51;;;;;;;4.30;2.25;;;;;;;18.13;98.34;100219.69;5077855;28;20050;-37
2023/09/25 00:25:22;;;;;;;2.90;1.98;;;;;;;18.19;98.04;100246.50;5074006;28;20749;-36
2023/09/25 00:27:49;;;;;;;1.67;1.20;;;;;;;18.16;97.83;100257.19;5067460;28;20047;-36
2023/09/25 00:30:15;;;;;;;2.28;1.48;;;;;;;18.14;97.36;100271.38;5078277;28;20036;-36
2023/09/25 00:32:41;;;;;;;1.90;1.17;;;;;;;18.10;97.03;100267.22;5077686;28;20624;-37
2023/09/25 00:35:10;;;;;;;3.42;1.45;;;;;;;18.05;96.58;100264.88;5066499;28;20450;-37
2023/09/25 00:37:37;;;;;;;2.50;1.42;;;;;;;18.07;96.40;100281.41;5078012;28;20044;-37
2023/09/25 00:40:12;;;;;;;5.47;1.35;;;;;;;17.96;96.24;100264.50;5068349;28;20044;-37
2023/09/25 00:42:42;;;;;;;2.05;1.17;;;;;;;18.01;96.05;100283.50;5067666;28;20595;-36
2023/09/25 00:45:10;;;;;;;2.00;1.35;;;;;;;17.71;96.33;100241.34;5067386;28;20044;-37
2023/09/25 00:47:36;;;;;;;1.80;1.40;;;;;;;17.84;96.43;100268.69;5065099;28;20109;-37
2023/09/25 00:50:04;;;;;;;3.53;1.55;;;;;;;17.98;96.54;100291.59;5076215;28;20496;-35
2023/09/25 00:52:31;;;;;;;;;;;;;;;17.97;96.54;100282.00;5082056;28;20040;-36
2023/09/25 00:54:59;;;;;;;2.20;1.40;;;;;;;17.92;96.37;100290.13;5078134;28;20399;-36
2023/09/25 00:57:25;;;;;;;2.35;1.35;;;;;;;17.89;96.38;100282.44;5038145;28;20127;-35
2023/09/25 00:59:52;;;;;;;1.27;0.90;;;;;;;17.85;96.29;100274.78;5057666;28;20603;-36
2023/09/25 01:02:18;;;;;;;2.45;1.10;;;;;;;17.66;96.00;100256.50;5075371;28;20051;-36
2023/09/25 01:04:44;;;;;;;2.80;1.45;;;;;;;17.77;95.78;100277.81;5074642;28;20044;-37
2023/09/25 01:07:10;;;;;;;1.38;1.00;;;;;;;17.56;95.52;100250.88;5079284;28;20068;-36
2023/09/25 01:09:35;;;;;;;1.58;1.17;;;;;;;17.62;95.54;100270.78;5079071;28;20509;-38
2023/09/25 01:12:01;;;;;;;2.30;1.02;;;;;;;17.65;95.36;100281.09;5077747;28;20452;-37
2023/09/25 01:14:27;;;;;;;1.85;1.20;;;;;;;17.60;95.17;100283.13;5078688;28;20036;-37
2023/09/25 01:16:53;;;;;;;1.58;1.30;;;;;;;17.40;94.90;100262.28;5084537;28;20040;-36
2023/09/25 01:19:19;;;;;;;1.40;1.10;;;;;;;17.51;94.83;100291.50;5077571;28;20056;-36
2023/09/25 01:21:46;;;;;;;4.03;1.33;;;;;;;17.34;94.42;100280.09;5077061;28;20044;-36
2023/09/25 01:24:12;;;;;;;2.05;1.40;;;;;;;17.48;93.99;100310.91;5082207;28;20043;-37
2023/09/25 01:26:38;;;;;;;1.88;1.30;;;;;;;17.29;94.25;100283.88;5082212;28;20036;-36
2023/09/25 01:29:04;;;;;;;2.03;1.52;;;;;;;17.35;93.92;100318.59;5073879;28;20032;-37
2023/09/25 01:31:30;;;;;;;2.50;1.30;;;;;;;17.35;93.96;100320.38;5057465;28;20041;-36
2023/09/25 01:33:55;;;;;;;1.73;1.40;;;;;;;17.35;93.75;100320.38;5082795;28;20537;-37
2023/09/25 01:36:21;;;;;;;2.58;1.15;;;;;;;17.36;93.48;100322.94;5069705;28;20047;-36
2023/09/25 01:38:49;;;;;;;2.00;1.27;;;;;;;17.31;93.52;100317.06;5079603;28;20044;-37
2023/09/25 01:41:16;;;;;;;1.92;1.33;;;;;;;17.21;93.38;100294.81;5059965;28;20738;-37
2023/09/25 01:43:43;;;;;;;2.50;1.20;;;;;;;17.43;93.42;100322.59;5093724;28;20176;-37
2023/09/25 01:46:09;;;;;;;5.40;2.20;;;;;;;17.41;93.57;100327.09;5044063;28;20063;-37
2023/09/25 01:48:36;;;;;;;1.70;1.38;;;;;;;17.26;93.48;100312.97;5074401;28;20055;-36
2023/09/25 01:51:11;;;;;;;1.60;1.20;;;;;;;17.39;93.27;100337.66;5068597;28;20046;-36
2023/09/25 01:53:38;;;;;;;2.67;1.42;;;;;;;17.36;92.99;100335.22;5075776;28;20098;-36
2023/09/25 01:56:15;;;;;;;1.63;1.00;;;;;;;17.36;92.52;100337.84;5077156;28;20045;-36
2023/09/25 01:58:42;;;;;;;2.63;1.30;;;;;;;17.21;92.36;100328.13;5054228;28;20038;-37
2023/09/25 02:01:09;;;;;;;1.80;1.52;;;;;;;17.35;92.75;100350.13;5069246;28;20040;-37
2023/09/25 02:03:35;;;;;;;2.55;1.45;;;;;;;17.33;92.68;100359.00;5070031;28;20048;-37
2023/09/25 02:06:01;;;;;;;2.42;1.52;;;;;;;17.29;92.45;100354.84;5077614;28;20067;-35
2023/09/25 02:08:29;;;;;;;1.60;1.38;;;;;;;16.87;92.38;100307.94;5080565;28;20048;-37
2023/09/25 02:10:56;;;;;;;2.05;1.50;;;;;;;16.89;92.57;100335.84;5079559;28;20062;-35
2023/09/25 02:13:22;;;;;;;3.97;2.80;;;;;;;16.96;93.10;100364.44;5063461;28;20075;-36
2023/09/25 02:15:51;;;;;;;3.45;1.60;;;;;;;16.91;93.11;100369.91;5075243;28;20041;-35
2023/09/25 02:18:18;;;;;;;2.60;1.70;;;;;;;16.86;93.41;100367.50;5071732;28;20131;-36
2023/09/25 02:20:45;;;;;;;2.70;1.90;;;;;;;16.85;93.65;100367.59;5060617;28;20056;-37
2023/09/25 02:23:11;;;;;;;3.70;2.03;;;;;;;16.83;93.97;100367.66;5081255;28;20032;-37
2023/09/25 02:25:37;;;;;;;2.67;1.50;;;;;;;16.78;93.80;100374.94;5080524;28;20049;-36
2023/09/25 02:28:04;;;;;;;3.15;1.52;;;;;;;16.72;93.77;100377.84;5059892;28;20051;-36
2023/09/25 02:30:30;;;;;;;3.10;1.77;;;;;;;16.68;94.01;100386.81;5081194;28;20035;-36
2023/09/25 02:32:55;;;;;;;2.30;1.65;;;;;;;16.68;94.13;100388.56;5079056;28;20534;-36
2023/09/25 02:35:21;;;;;;;4.50;2.15;;;;;;;16.66;94.53;100387.78;5077358;28;20045;-36
2023/09/25 02:37:47;;;;;;;2.15;1.80;;;;;;;16.69;94.51;100399.00;5068606;28;20040;-36
2023/09/25 02:40:14;;;;;;;2.83;2.15;;;;;;;16.67;94.69;100405.25;5077325;28;20131;-37
2023/09/25 02:42:45;;;;;;;3.58;2.25;;;;;;;16.65;95.17;100399.22;5075682;28;20511;-36
2023/09/25 02:45:11;;;;;;;4.30;2.97;;;;;;;16.62;95.11;100413.34;5062696;28;20116;-36
2023/09/25 02:47:37;;;;;;;3.60;2.83;;;;;;;16.61;95.01;100406.38;5075822;28;20084;-37
2023/09/25 02:50:03;;;;;;;4.05;2.72;;;;;;;16.64;94.36;100418.53;5077723;28;20139;-45
2023/09/25 02:52:31;;;;;;;3.28;2.50;;;;;;;16.66;94.48;100425.41;5072526;28;20043;-37
2023/09/25 02:54:57;;;;;;;4.45;3.42;;;;;;;16.65;94.27;100425.47;5076219;28;20056;-37
2023/09/25 02:57:23;;;;;;;5.28;3.47;;;;;;;16.58;93.86;100426.66;5076624;28;20083;-37
2023/09/25 02:59:49;;;;;;;7.07;4.55;;;;;;;16.48;93.82;100423.63;5069491;28;20512;-36
2023/09/25 03:02:15;;;;;;;4.43;3.65;;;;;;;16.31;93.64;100416.53;5075574;28;20045;-37
2023/09/25 03:04:41;;;;;;;4.85;3.60;;;;;;;16.41;93.70;100438.81;5075460;28;20048;-36
2023/09/25 03:07:07;;;;;;;6.30;4.13;;;;;;;16.44;93.93;100441.25;5074707;28;20052;-37
2023/09/25 03:09:33;;;;;;;4.50;3.53;;;;;;;16.30;93.56;100408.72;5079218;28;20040;-37
2023/09/25 03:11:59;;;;;;;7.03;3.30;;;;;;;16.45;93.33;100426.38;5077908;28;20040;-36
2023/09/25 03:14:27;;;;;;;5.45;3.90;;;;;;;16.38;92.83;100425.81;5074359;28;20462;-35
2023/09/25 03:16:53;;;;;;;5.25;3.85;;;;;;;16.60;92.60;100448.47;5072576;28;20072;-38
2023/09/25 03:19:19;;;;;;;5.53;3.70;;;;;;;16.60;92.53;100441.44;5075152;28;20609;-36
2023/09/25 03:21:45;;;;;;;5.05;3.60;;;;;;;16.69;92.38;100451.53;5069852;28;20040;-36
2023/09/25 03:24:11;;;;;;;5.43;4.18;;;;;;;16.38;91.82;100412.69;5058353;28;20028;-37
2023/09/25 03:26:37;;;;;;;6.20;3.58;;;;;;;16.69;91.48;100459.41;5077803;28;20458;-37
2023/09/25 03:29:04;;;;;;;5.72;3.92;;;;;;;16.70;90.97;100461.09;5070704;28;20044;-37
2023/09/25 03:31:30;;;;;;;7.32;4.28;;;;;;;16.69;91.09;100466.44;5074912;28;20130;-36
2023/09/25 03:33:56;;;;;;;6.40;4.20;;;;;;;16.68;90.63;100470.81;5069011;28;20135;-37
2023/09/25 03:36:22;;;;;;;9.02;4.95;;;;;;;16.69;90.45;100472.53;5070678;28;20041;-38
2023/09/25 03:38:51;;;;;;;6.47;4.43;;;;;;;16.71;90.17;100485.56;5073334;28;20035;-36
2023/09/25 03:41:16;;;;;;;6.13;3.85;;;;;;;16.74;89.82;100491.56;5074646;28;20051;-36
2023/09/25 03:43:42;;;;;;;4.18;3.67;;;;;;;16.76;89.77;100487.06;5074342;28;20036;-37
2023/09/25 03:46:08;;;;;;;5.63;3.63;;;;;;;16.54;89.17;100450.41;5067361;28;20032;-37
2023/09/25 03:48:34;;;;;;;7.93;4.10;;;;;;;16.82;89.20;100496.44;5075073;28;20169;-37
2023/09/25 03:51:00;;;;;;;6.68;3.85;;;;;;;16.65;89.02;100465.69;5074603;28;20060;-37
2023/09/25 03:53:26;;;;;;;4.47;3.40;;;;;;;16.86;88.95;100505.88;5066270;28;20036;-37
2023/09/25 03:55:51;;;;;;;5.25;3.67;;;;;;;16.88;88.92;100523.28;5080512;28;20040;-37
2023/09/25 03:58:18;;;;;;;5.53;3.20;;;;;;;16.89;88.75;100511.84;5057761;28;20078;-36
2023/09/25 04:00:44;;;;;;;5.90;3.47;;;;;;;16.91;88.41;100507.34;5064649;28;20067;-38
2023/09/25 04:03:10;;;;;;;3.97;3.45;;;;;;;16.96;87.76;100514.19;5060479;28;20072;-38
2023/09/25 04:05:36;;;;;;;7.95;4.10;;;;;;;16.99;87.55;100507.00;5086122;28;20075;-37
2023/09/25 04:08:02;;;;;;;4.60;3.90;;;;;;;17.02;87.65;100508.63;5070344;28;20080;-37
2023/09/25 04:10:28;;;;;;;5.32;3.30;;;;;;;17.04;86.25;100514.66;5063014;28;20539;-37
2023/09/25 04:12:55;;;;;;;4.65;4.15;;;;;;;17.08;86.21;100519.69;5074113;28;20040;-39
2023/09/25 04:15:25;;;;;;;7.10;3.83;;;;;;;17.12;85.64;100523.88;5063439;28;20055;-37
2023/09/25 04:17:51;;;;;;;5.22;3.40;;;;;;;17.03;85.25;100494.56;5077425;28;20050;-37
2023/09/25 04:20:17;;;;;;;6.47;4.30;;;;;;;17.22;84.92;100527.75;5081263;28;20097;-38
2023/09/25 04:22:45;;;;;;;8.15;4.38;;;;;;;17.22;84.15;100529.53;5078169;28;20424;-36
2023/09/25 04:25:20;;;;;;;6.32;4.03;;;;;;;17.16;83.75;100532.47;5071215;28;20040;-38
2023/09/25 04:27:53;;;;;;;5.95;4.22;;;;;;;17.06;84.00;100531.22;5078656;28;20520;-38
2023/09/25 04:30:20;;;;;;;10.50;4.63;;;;;;;17.03;83.99;100533.97;5085002;28;20031;-37
2023/09/25 04:32:48;;;;;;;6.95;4.80;;;;;;;16.99;83.75;100543.78;5077405;28;20753;-38
2023/09/25 04:35:15;;;;;;;6.32;4.38;;;;;;;17.00;83.69;100536.75;5083294;28;20039;-37
2023/09/25 04:37:42;;;;;;;6.53;4.13;;;;;;;17.02;83.72;100542.78;5081193;28;20503;-36
2023/09/25 04:40:21;;;;;;;6.88;4.35;;;;;;;17.01;83.73;100543.72;5082476;28;20067;-37
2023/09/25 04:42:52;;;;;;;9.85;4.85;;;;;;;17.10;83.92;100546.75;5080742;28;20131;-37
2023/09/25 04:45:19;;;;;;;8.68;4.80;;;;;;;17.18;83.21;100547.25;5078830;28;20140;-36
2023/09/25 04:47:52;;;;;;;5.57;4.60;;;;;;;17.20;82.63;100539.28;5064149;28;20257;-38
2023/09/25 04:50:20;;;;;;;7.13;4.30;;;;;;;17.12;82.64;100552.78;5079172;28;20047;-37
2023/09/25 04:52:46;;;;;;;5.68;4.55;;;;;;;17.05;83.06;100547.91;5081307;28;20432;-36
2023/09/25 04:55:13;;;;;;;5.70;4.30;;;;;;;16.98;82.93;100555.22;5073207;28;20043;-38
2023/09/25 04:57:44;;;;;;;5.65;4.40;;;;;;;16.91;83.46;100559.03;5085348;28;20044;-37
2023/09/25 05:00:18;;;;;;;6.97;4.38;;;;;;;16.82;83.37;100544.56;5085775;28;20044;-37
2023/09/25 05:02:45;;;;;;;6.78;4.50;;;;;;;16.84;83.69;100560.25;5074857;28;20078;-36
2023/09/25 05:05:12;;;;;;;7.03;4.70;;;;;;;16.86;83.55;100566.28;5050674;28;20071;-37
2023/09/25 05:07:41;;;;;;;7.40;4.63;;;;;;;16.93;83.78;100567.72;5073759;28;20044;-37
2023/09/25 05:10:12;;;;;;;8.07;4.50;;;;;;;16.96;83.49;100570.19;5076847;28;20048;-37
2023/09/25 05:12:41;;;;;;;7.05;4.85;;;;;;;17.01;83.43;100568.19;5085834;28;20036;-38
2023/09/25 05:15:08;;;;;;;7.10;3.88;;;;;;;17.04;83.01;100569.84;5077156;28;20138;-38
2023/09/25 05:17:36;;;;;;;8.13;5.20;;;;;;;17.09;82.54;100573.09;5072811;28;20036;-37
2023/09/25 05:20:08;;;;;;;8.30;5.43;;;;;;;17.04;82.05;100549.69;5057106;28;20076;-38
2023/09/25 05:22:35;;;;;;;5.95;4.70;;;;;;;17.29;81.55;100575.63;5079763;28;20064;-37
2023/09/25 05:25:00;;;;;;;3.95;3.55;;;;;;;17.36;80.96;100579.69;5058235;28;20043;-38
2023/09/25 05:27:26;;;;;;;13.48;3.70;;;;;;;17.48;80.38;100583.50;5070906;28;20028;-36
2023/09/25 05:29:52;;;;;;;5.45;4.10;;;;;;;17.50;79.71;100584.28;5062413;28;20044;-37
2023/09/25 05:32:18;;;;;;;6.10;3.88;;;;;;;17.47;79.14;100577.41;5078436;28;20040;-37
2023/09/25 05:34:44;;;;;;;3.83;3.42;;;;;;;17.55;78.80;100582.25;5068117;28;20048;-36
2023/09/25 05:37:11;;;;;;;5.78;4.28;;;;;;;17.43;78.21;100575.81;5075262;28;20519;-36
2023/09/25 05:39:36;;;;;;;10.07;4.03;;;;;;;17.60;77.66;100591.66;5080650;28;20575;-37
2023/09/25 05:42:02;;;;;;;5.57;4.80;;;;;;;17.63;77.17;100593.31;5067916;28;20040;-37
2023/09/25 05:44:28;;;;;;;6.03;4.10;;;;;;;17.68;76.90;100600.06;5081742;28;20064;-37
2023/09/25 05:46:54;;;;;;;8.20;4.30;;;;;;;17.74;75.96;100591.84;5064750;28;20082;-37
2023/09/25 05:49:20;;;;;;;6.82;3.78;;;;;;;17.65;75.53;100575.66;5073035;28;20088;-37
2023/09/25 05:51:46;;;;;;;5.05;3.75;;;;;;;17.82;75.01;100596.72;5075520;28;20076;-36
2023/09/25 05:54:11;;;;;;;5.75;4.40;;;;;;;17.87;74.59;100597.34;5062995;28;20068;-37
2023/09/25 05:56:38;;;;;;;8.00;4.82;;;;;;;17.91;74.38;100604.16;5072536;28;20048;-36
2023/09/25 05:59:04;;;;;;;6.18;3.75;;;;;;;17.91;74.17;100600.69;5079063;28;20051;-38
2023/09/25 06:01:29;;;;;;;6.28;4.00;;;;;;;17.93;73.92;100602.31;5080190;28;20043;-37
2023/09/25 06:03:57;;;;;;;6.90;3.30;;;;;;;17.87;73.63;100607.88;5061409;28;20044;-36
2023/09/25 06:06:23;;;;;;;5.38;3.42;;;;;;;17.89;72.92;100607.81;5067759;28;20131;-37
2023/09/25 06:08:49;;;;;;;6.72;3.90;;;;;;;17.92;72.54;100611.13;5078569;28;20079;-37
2023/09/25 06:11:14;;;;;;;6.32;3.40;;;;;;;17.82;72.14;100585.34;5054648;28;20094;-37
2023/09/25 06:13:40;;;;;;;5.28;3.70;;;;;;;18.01;71.92;100597.50;5077747;28;20041;-37
2023/09/25 06:16:06;;;;;;;5.57;3.67;;;;;;;18.11;71.46;100608.41;5079373;28;20590;-37
2023/09/25 06:18:32;;;;;;;7.55;3.45;;;;;;;18.14;70.73;100622.28;5064014;28;20052;-38
2023/09/25 06:20:58;;;;;;;8.68;4.75;;;;;;;18.19;70.38;100611.53;5080658;28;20032;-37
2023/09/25 06:23:24;;;;;;;5.43;3.97;;;;;;;18.28;69.83;100618.09;5080145;28;20040;-37
2023/09/25 06:25:50;;;;;;;5.03;3.17;;;;;;;18.34;69.67;100621.28;5075428;28;20096;-36
2023/09/25 06:28:18;;;;;;;4.00;3.15;;;;;;;18.51;69.07;100625.69;5074081;28;20040;-37
2023/09/25 06:30:43;;;;;;;5.28;3.13;;;;;;;18.69;67.99;100629.16;5080879;28;20051;-37
2023/09/25 06:33:09;;;;;;;4.68;3.40;;;;;;;18.84;67.15;100634.44;5075973;28;20036;-37
2023/09/25 06:35:35;;;;;;;4.57;3.10;;;;;;;18.92;66.77;100631.41;5055719;28;20048;-37
2023/09/25 06:38:01;;;;;;;8.40;4.82;;;;;;;18.90;66.47;100635.91;5077199;28;20166;-37
2023/09/25 06:40:27;;;;;;;7.78;4.10;;;;;;;18.92;66.50;100640.19;5078369;28;20066;-37
2023/09/25 06:42:53;;;;;;;5.07;3.05;;;;;;;18.96;66.25;100641.72;5079581;28;20036;-37
2023/09/25 06:45:21;;;;;;;5.20;3.05;;;;;;;18.76;66.05;100612.94;5077489;28;20539;-37
2023/09/25 06:47:47;;;;;;;7.15;4.30;;;;;;;18.87;65.88;100646.63;5067243;28;20059;-38
2023/09/25 06:50:13;;;;;;;7.03;3.53;;;;;;;18.84;66.15;100652.06;5075452;28;20045;-39
2023/09/25 06:52:40;;;;;;;3.85;3.13;;;;;;;18.86;65.96;100648.41;5076845;28;20036;-37
2023/09/25 06:55:07;;;;;;;5.80;3.10;;;;;;;18.95;65.49;100653.19;5067884;28;20841;-37
2023/09/25 06:57:33;;;;;;;3.65;2.88;;;;;;;19.03;65.09;100655.44;5072330;28;20040;-36
2023/09/25 07:00:00;;;;;;;6.80;4.25;;;;;;;19.08;64.87;100653.38;5077215;28;20046;-37
2023/09/25 07:02:26;;;;;;;7.72;3.30;;;;;;;19.00;65.16;100653.78;5055613;28;20109;-37
2023/09/25 07:04:53;;;;;;;5.88;3.20;;;;;;;19.00;64.99;100663.47;5077645;28;20037;-37
2023/09/25 07:07:20;;;;;;;5.50;3.78;;;;;;;19.00;64.94;100655.56;5070024;28;20052;-36
2023/09/25 07:09:46;;;;;;;6.35;4.43;;;;;;;19.08;64.29;100669.22;5057480;28;20134;-37
2023/09/25 07:12:14;;;;;;;8.75;5.20;;;;;;;19.12;64.12;100667.25;5064933;28;20130;-38
2023/09/25 07:14:40;;;;;;;7.13;4.35;;;;;;;19.11;64.11;100678.72;5072673;28;20036;-38
2023/09/25 07:17:06;;;;;;;4.43;3.13;;;;;;;19.08;63.99;100686.81;5077001;28;20436;-39
2023/09/25 07:19:32;;;;;;;5.07;3.67;;;;;;;19.07;63.40;100677.19;5058230;28;20035;-39
2023/09/25 07:21:58;;;;;;;4.18;3.00;;;;;;;19.08;62.97;100681.53;5058119;28;20044;-38
2023/09/25 07:24:24;;;;;;;4.90;2.83;;;;;;;19.10;62.51;100692.84;5096002;28;20036;-37
2023/09/25 07:26:51;;;;;;;6.55;3.55;;;;;;;19.09;62.11;100686.72;5071380;28;20037;-37
2023/09/25 07:29:19;;;;;;;5.18;2.72;;;;;;;19.11;62.05;100700.66;5078811;28;20507;-36
2023/09/25 07:31:45;;;;;;;4.45;2.85;;;;;;;19.15;62.03;100701.38;5079604;28;20168;-37
2023/09/25 07:34:11;;;;;;;5.28;2.67;;;;;;;19.17;62.28;100696.84;5075347;28;20120;-38
2023/09/25 07:36:37;;;;;;;4.80;3.15;;;;;;;19.17;62.42;100695.06;5076620;28;20088;-38
2023/09/25 07:39:04;;;;;;;4.20;3.17;;;;;;;19.25;62.84;100700.81;5066928;28;20040;-36
2023/09/25 07:41:30;;;;;;;6.63;3.33;;;;;;;19.39;62.31;100703.53;5078343;28;20127;-37
2023/09/25 07:43:56;;;;;;;6.00;3.17;;;;;;;19.47;62.02;100703.13;5073947;28;20138;-37
2023/09/25 07:46:25;;;;;;;6.78;3.40;;;;;;;19.49;61.86;100697.78;5074712;28;20088;-37
2023/09/25 07:48:52;;;;;;;;;;;;;;;19.50;61.88;100691.56;5066372;28;20508;-37
2023/09/25 07:51:18;;;;;;;5.47;2.70;;;;;;;19.54;61.78;100696.59;5073761;28;19927;-37
2023/09/25 07:53:44;;;;;;;7.95;2.95;;;;;;;19.60;61.74;100690.97;5073086;28;20080;-37
2023/09/25 07:56:11;;;;;;;7.43;4.90;;;;;;;19.64;61.49;100696.94;5071576;28;20052;-36
2023/09/25 07:58:39;;;;;;;4.78;3.17;;;;;;;19.64;61.41;100702.22;5069419;28;20131;-37
2023/09/25 08:01:08;;;;;;;4.40;2.72;;;;;;;19.51;61.37;100688.00;5078574;28;20039;-37
2023/09/25 08:03:35;;;;;;;;;;;;;;;19.59;61.34;100702.47;5074597;28;20089;-37
2023/09/25 08:06:05;;;;;;;4.88;2.60;;;;;;;19.59;61.23;100714.81;5067038;28;19928;-37
2023/09/25 08:08:34;;;;;;;3.55;2.67;;;;;;;19.55;61.28;100719.41;5067089;28;20052;-39
2023/09/25 08:11:00;;;;;;;4.20;3.15;;;;;;;19.51;61.81;100722.28;5066389;28;20075;-38
2023/09/25 08:13:26;;;;;;;4.20;2.85;;;;;;;19.53;61.41;100733.59;5067596;28;20040;-38
2023/09/25 08:15:52;;;;;;;5.03;2.88;;;;;;;19.50;61.54;100708.25;5066461;28;20055;-37
2023/09/25 08:18:18;;;;;;;5.70;2.67;;;;;;;19.62;61.54;100731.34;5069934;28;20040;-37
2023/09/25 08:20:43;;;;;;;6.43;2.53;;;;;;;19.65;61.21;100723.25;5078484;28;20044;-37
2023/09/25 08:23:10;;;;;;;5.88;3.70;;;;;;;19.72;60.62;100729.88;5064826;28;20036;-37
2023/09/25 08:25:35;;;;;;;9.25;2.97;;;;;;;19.79;60.47;100739.16;5060899;28;20504;-38
2023/09/25 08:28:01;;;;;;;9.43;3.13;;;;;;;19.82;60.41;100743.41;5066362;28;20048;-38
2023/09/25 08:30:27;;;;;;;3.83;2.30;;;;;;;19.84;60.47;100745.03;5067644;28;20056;-37
2023/09/25 08:32:53;;;;;;;5.15;2.80;;;;;;;19.81;60.40;100745.22;5070520;28;20397;-36
2023/09/25 08:35:20;;;;;;;6.13;2.72;;;;;;;19.75;60.11;100742.03;5072918;28;20035;-37
2023/09/25 08:37:47;;;;;;;7.07;2.90;;;;;;;19.59;60.08;100749.09;5046486;28;20052;-37
2023/09/25 08:40:13;;;;;;;6.43;2.67;;;;;;;19.47;60.13;100744.50;5073207;28;20051;-37
2023/09/25 08:42:39;;;;;;;16.45;2.95;;;;;;;19.32;60.30;100723.25;5080173;28;20090;-37
2023/09/25 08:45:05;;;;;;;5.20;2.58;;;;;;;19.53;60.05;100749.44;5070926;28;20044;-38
2023/09/25 08:47:34;;;;;;;4.60;2.58;;;;;;;19.54;59.89;100753.78;5077245;28;20139;-37
2023/09/25 08:50:01;;;;;;;3.20;2.63;;;;;;;19.52;59.57;100758.31;5036881;28;20539;-41
2023/09/25 08:52:28;;;;;;;4.90;2.85;;;;;;;19.48;59.85;100769.94;5065789;28;20457;-39
2023/09/25 08:54:54;;;;;;;3.72;2.65;;;;;;;19.47;59.91;100757.69;5066868;28;20069;-38
2023/09/25 08:57:22;;;;;;;5.65;2.97;;;;;;;19.48;59.97;100762.88;5071121;28;20617;-37
2023/09/25 08:59:49;;;;;;;5.03;2.50;;;;;;;19.32;59.60;100743.50;5044482;28;20052;-36
2023/09/25 09:02:15;;;;;;;3.60;2.60;;;;;;;19.45;59.71;100765.69;5064989;28;20036;-37
2023/09/25 09:04:42;;;;;;;4.25;3.03;;;;;;;19.45;59.72;100770.97;5065216;28;20064;-37
2023/09/25 09:07:09;;;;;;;8.88;3.40;;;;;;;19.49;59.62;100772.50;5069615;28;20060;-37
2023/09/25 09:09:36;;;;;;;4.45;2.50;;;;;;;19.58;59.36;100773.78;5074910;28;20037;-38
2023/09/25 09:12:02;;;;;;;4.28;2.78;;;;;;;19.62;59.09;100775.34;5076414;28;20436;-38
2023/09/25 09:14:39;;;;;;;4.53;3.15;;;;;;;19.63;58.69;100780.50;5067647;28;20460;-37
2023/09/25 09:17:06;;;;;;;4.03;2.50;;;;;;;19.62;58.58;100783.25;5072287;28;20139;-37
2023/09/25 09:19:44;;;;;;;3.67;2.40;;;;;;;19.59;58.25;100784.25;5057772;28;20512;-37
2023/09/25 09:22:10;;;;;;;9.65;4.53;;;;;;;19.37;58.42;100766.06;5070936;28;20467;-37
2023/09/25 09:24:40;;;;;;;5.68;2.80;;;;;;;19.52;58.56;100789.97;5079475;28;20154;-38
2023/09/25 09:27:09;;;;;;;6.95;3.20;;;;;;;19.26;58.75;100755.22;5079467;28;20146;-37
2023/09/25 09:29:45;;;;;;;;;;;;;;;19.50;58.77;100799.72;5073531;28;20032;-38
2023/09/25 09:32:11;;;;;;;10.60;6.95;;;;;;;19.47;58.77;100795.44;5082686;28;19923;-38
2023/09/25 09:34:41;;;;;;;10.93;6.45;;;;;;;19.41;58.88;100791.34;5071372;28;20040;-38
2023/09/25 09:37:12;;;;;;;4.57;3.45;;;;;;;19.12;58.92;100751.59;5072370;28;20055;-38
2023/09/25 09:39:45;;;;;;;4.97;2.75;;;;;;;19.25;59.02;100769.34;5070919;28;20664;-38
2023/09/25 09:42:11;;;;;;;4.15;2.60;;;;;;;19.48;59.12;100802.44;5072017;28;20036;-38
2023/09/25 09:44:37;;;;;;;6.88;3.00;;;;;;;19.64;59.07;100808.59;5055808;28;20040;-38
2023/09/25 09:47:05;;;;;;;11.25;5.95;;;;;;;19.73;58.84;100805.47;5084569;28;20044;-37
2023/09/25 09:49:35;;;;;;;9.85;4.85;;;;;;;19.77;58.70;100806.16;5081972;28;20044;-37
2023/09/25 09:52:02;;;;;;;6.85;3.28;;;;;;;19.84;58.58;100805.72;5076742;28;20532;-38
2023/09/25 09:54:37;;;;;;;4.95;3.30;;;;;;;19.92;58.35;100812.38;5074026;28;20134;-39
2023/09/25 09:57:03;;;;;;;7.85;3.42;;;;;;;20.07;58.13;100808.91;5080627;28;20434;-38
2023/09/25 09:59:30;;;;;;;4.10;2.80;;;;;;;20.31;57.78;100810.19;5050923;28;20433;-38
2023/09/25 10:01:57;;;;;;;5.85;3.25;;;;;;;20.47;57.33;100811.03;5077615;28;20052;-37
2023/09/25 10:04:26;;;;;;;5.72;3.38;;;;;;;20.51;57.07;100790.56;5073560;28;20039;-37
2023/09/25 10:06:53;;;;;;;5.18;2.70;;;;;;;20.63;56.48;100817.13;5066881;28;20582;-37
2023/09/25 10:09:20;;;;;;;5.18;2.70;;;;;;;20.64;56.21;100813.56;5065513;28;20047;-36
2023/09/25 10:11:47;;;;;;;7.57;3.08;;;;;;;20.67;55.87;100821.28;5076048;28;20040;-37
2023/09/25 10:14:13;;;;;;;5.90;3.20;;;;;;;20.67;55.67;100823.94;5071047;28;20055;-37
2023/09/25 10:16:58;;;;;;;7.43;2.90;;;;;;;20.66;55.88;100824.03;5077320;28;20036;-37
2023/09/25 10:19:36;;;;;;;3.53;2.72;;;;;;;20.60;55.68;100819.09;5071350;28;20051;-36
2023/09/25 10:22:12;;;;;;;4.57;3.05;;;;;;;20.53;55.75;100830.97;5077183;28;20382;-37
2023/09/25 10:24:38;;;;;;;4.43;2.80;;;;;;;20.40;55.90;100825.53;5068006;28;20045;-39
2023/09/25 10:27:04;;;;;;;6.32;3.10;;;;;;;20.37;56.10;100830.97;5094247;28;20043;-38
2023/09/25 10:29:30;;;;;;;4.75;3.10;;;;;;;20.31;56.33;100833.97;5073179;28;20043;-37
2023/09/25 10:31:57;;;;;;;3.45;2.53;;;;;;;20.24;56.56;100832.59;5073793;28;20128;-36
2023/09/25 10:34:25;;;;;;;5.88;3.60;;;;;;;20.22;56.84;100830.03;5059437;28;20606;-38
2023/09/25 10:36:59;;;;;;;6.07;3.72;;;;;;;20.27;57.14;100833.25;5074781;28;20036;-38
2023/09/25 10:39:29;;;;;;;5.15;2.63;;;;;;;20.10;57.12;100811.34;5075795;28;20039;-38
2023/09/25 10:42:02;;;;;;;;;;;;;;;20.26;56.96;100834.19;5074807;28;20044;-36
2023/09/25 10:44:28;;;;;;;4.03;2.85;;;;;;;20.09;56.89;100805.25;5046454;28;19923;-37
2023/09/25 10:46:55;;;;;;;3.83;2.65;;;;;;;20.13;56.80;100803.28;5075772;28;20041;-37
2023/09/25 10:49:22;;;;;;;7.90;3.45;;;;;;;20.34;56.46;100832.94;5076587;28;20036;-37
2023/09/25 10:51:48;;;;;;;4.13;2.70;;;;;;;20.40;56.47;100836.09;5077046;28;20097;-37
2023/09/25 10:54:15;;;;;;;4.82;3.15;;;;;;;20.45;56.12;100828.78;5065410;28;20062;-38
2023/09/25 10:56:40;;;;;;;5.50;2.40;;;;;;;20.52;55.63;100829.25;5080420;28;20068;-37
2023/09/25 10:59:07;;;;;;;5.55;3.50;;;;;;;20.54;55.11;100833.53;5075442;28;20086;-37
2023/09/25 11:01:35;;;;;;;5.60;2.85;;;;;;;20.44;54.97;100813.84;5075528;28;20519;-37
2023/09/25 11:04:01;;;;;;;3.10;2.60;;;;;;;20.57;54.66;100835.13;5063041;28;20037;-38
2023/09/25 11:06:27;;;;;;;6.47;3.60;;;;;;;20.61;54.51;100836.66;5079985;28;20455;-37
2023/09/25 11:09:17;;;;;;;5.93;4.13;;;;;;;20.64;54.45;100834.69;5054855;28;20110;-37
2023/09/25 11:11:46;;;;;;;3.63;2.88;;;;;;;20.66;54.55;100830.19;5068583;28;20109;-37
2023/09/25 11:14:12;;;;;;;4.22;2.15;;;;;;;20.69;54.50;100840.56;5063775;28;20069;-38
2023/09/25 11:16:39;;;;;;;8.13;3.15;;;;;;;20.75;54.51;100838.50;5078575;28;20050;-38
2023/09/25 11:19:06;;;;;;;4.15;2.20;;;;;;;20.80;54.34;100844.38;5070495;28;20563;-39
2023/09/25 11:21:32;;;;;;;7.30;2.50;;;;;;;20.83;54.01;100831.00;5074479;28;20118;-37
2023/09/25 11:23:58;;;;;;;5.70;2.10;;;;;;;20.94;53.66;100837.34;5076528;28;20044;-38
2023/09/25 11:26:27;;;;;;;5.65;2.50;;;;;;;20.99;53.20;100819.41;5079246;28;20374;-38